sensor_id;sensor_type;location;lat;lon;timestamp;pressure;altitude;pressure_sealevel;temperature;humidity
73415;BME280;61633;53.742;-2.990;2022-09-09T00:00:34;100425.03;;;14.26;60.99
73415;BME280;61633;53.742;-2.990;2022-09-09T00:03:02;100427.19;;;14.43;59.41
73415;BME280;61633;53.742;-2.990;2022-09-09T00:05:27;100427.31;;;15.57;57.41
73415;BME280;61633;53.742;-2.990;2022-09-09T00:07:50;100428.41;;;14.54;58.06
73415;BME280;61633;53.742;-2.990;2022-09-09T00:10:18;100426.62;;;16.04;56.17
73415;BME280;61633;53.742;-2.990;2022-09-09T00:12:41;100434.72;;;14.86;57.34
73415;BME280;61633;53.742;-2.990;2022-09-09T00:15:11;100442.38;;;13.84;60.71
73415;BME280;61633;53.742;-2.990;2022-09-09T00:17:35;100440.99;;;15.21;57.50
73415;BME280;61633;53.742;-2.990;2022-09-09T00:19:59;100444.50;;;14.34;59.51
73415;BME280;61633;53.742;-2.990;2022-09-09T00:22:23;100443.45;;;15.10;59.04
73415;BME280;61633;53.742;-2.990;2022-09-09T00:24:48;100444.52;;;14.02;58.86
73415;BME280;61633;53.742;-2.990;2022-09-09T00:27:19;100444.68;;;14.19;59.93
73415;BME280;61633;53.742;-2.990;2022-09-09T00:29:43;100445.24;;;14.30;59.90
73415;BME280;61633;53.742;-2.990;2022-09-09T00:32:11;100449.02;;;13.90;61.64
73415;BME280;61633;53.742;-2.990;2022-09-09T00:34:28;100451.11;;;15.29;58.17
73415;BME280;61633;53.742;-2.990;2022-09-09T00:36:54;100451.96;;;14.80;58.45
73415;BME280;61633;53.742;-2.990;2022-09-09T00:39:25;100454.31;;;14.74;58.75
73415;BME280;61633;53.742;-2.990;2022-09-09T00:41:54;100454.86;;;14.78;58.95
73415;BME280;61633;53.742;-2.990;2022-09-09T00:44:20;100451.82;;;15.35;58.17
73415;BME280;61633;53.742;-2.990;2022-09-09T00:46:43;100450.51;;;14.74;58.77
73415;BME280;61633;53.742;-2.990;2022-09-09T00:49:07;100453.41;;;14.38;60.19
73415;BME280;61633;53.742;-2.990;2022-09-09T00:51:35;100449.03;;;13.63;61.72
73415;BME280;61633;53.742;-2.990;2022-09-09T00:54:07;100451.44;;;14.41;59.88
73415;BME280;61633;53.742;-2.990;2022-09-09T00:56:20;100449.39;;;14.51;59.81
73415;BME280;61633;53.742;-2.990;2022-09-09T00:58:51;100446.97;;;15.67;57.42
73415;BME280;61633;53.742;-2.990;2022-09-09T01:01:14;100445.46;;;15.40;57.47
73415;BME280;61633;53.742;-2.990;2022-09-09T01:03:37;100449.75;;;14.60;58.81
73415;BME280;61633;53.742;-2.990;2022-09-09T01:06:11;100452.07;;;14.25;59.73
73415;BME280;61633;53.742;-2.990;2022-09-09T01:08:42;100453.81;;;14.62;59.59
73415;BME280;61633;53.742;-2.990;2022-09-09T01:10:56;100453.24;;;14.94;58.09
73415;BME280;61633;53.742;-2.990;2022-09-09T01:13:22;100456.40;;;14.26;60.09
73415;BME280;61633;53.742;-2.990;2022-09-09T01:15:43;100453.46;;;15.46;57.93
73415;BME280;61633;53.742;-2.990;2022-09-09T01:18:10;100457.56;;;14.25;60.52
73415;BME280;61633;53.742;-2.990;2022-09-09T01:20:37;100456.84;;;15.00;59.09
73415;BME280;61633;53.742;-2.990;2022-09-09T01:23:15;100453.34;;;15.06;57.93
73415;BME280;61633;53.742;-2.990;2022-09-09T01:25:29;100455.90;;;14.89;58.15
73415;BME280;61633;53.742;-2.990;2022-09-09T01:27:49;100451.67;;;14.62;57.74
73415;BME280;61633;53.742;-2.990;2022-09-09T01:30:16;100455.49;;;14.83;59.45
73415;BME280;61633;53.742;-2.990;2022-09-09T01:32:42;100453.98;;;15.32;58.26
73415;BME280;61633;53.742;-2.990;2022-09-09T01:35:09;100457.93;;;14.22;60.40
73415;BME280;61633;53.742;-2.990;2022-09-09T01:37:30;100456.75;;;14.26;59.59
73415;BME280;61633;53.742;-2.990;2022-09-09T01:39:56;100457.60;;;14.40;59.83
73415;BME280;61633;53.742;-2.990;2022-09-09T01:42:22;100454.12;;;15.02;58.83
73415;BME280;61633;53.742;-2.990;2022-09-09T01:44:48;100451.72;;;14.46;59.07
73415;BME280;61633;53.742;-2.990;2022-09-09T01:47:14;100449.90;;;14.15;60.98
73415;BME280;61633;53.742;-2.990;2022-09-09T01:49:39;100451.81;;;14.54;58.89
73415;BME280;61633;53.742;-2.990;2022-09-09T01:52:04;100456.69;;;14.97;58.37
73415;BME280;61633;53.742;-2.990;2022-09-09T01:54:32;100458.76;;;14.17;60.07
73415;BME280;61633;53.742;-2.990;2022-09-09T01:57:02;100455.86;;;14.65;59.70
73415;BME280;61633;53.742;-2.990;2022-09-09T01:59:32;100457.78;;;14.13;61.50
73415;BME280;61633;53.742;-2.990;2022-09-09T02:01:57;100456.88;;;13.66;60.52
73415;BME280;61633;53.742;-2.990;2022-09-09T02:04:22;100457.20;;;14.36;60.16
73415;BME280;61633;53.742;-2.990;2022-09-09T02:06:49;100457.44;;;13.94;61.21
73415;BME280;61633;53.742;-2.990;2022-09-09T02:09:11;100457.32;;;15.04;58.57
73415;BME280;61633;53.742;-2.990;2022-09-09T02:11:30;100455.48;;;14.49;60.14
73415;BME280;61633;53.742;-2.990;2022-09-09T02:13:59;100453.74;;;14.24;59.69
73415;BME280;61633;53.742;-2.990;2022-09-09T02:16:24;100449.88;;;14.30;60.25
73415;BME280;61633;53.742;-2.990;2022-09-09T02:18:50;100449.49;;;12.31;63.60
73415;BME280;61633;53.742;-2.990;2022-09-09T02:21:13;100449.81;;;14.17;60.49
73415;BME280;61633;53.742;-2.990;2022-09-09T02:23:38;100451.42;;;14.78;59.06
73415;BME280;61633;53.742;-2.990;2022-09-09T02:26:04;100452.25;;;13.30;61.75
73415;BME280;61633;53.742;-2.990;2022-09-09T02:28:31;100453.61;;;14.41;59.13
73415;BME280;61633;53.742;-2.990;2022-09-09T02:30:54;100448.43;;;15.64;57.48
73415;BME280;61633;53.742;-2.990;2022-09-09T02:33:19;100452.53;;;14.77;59.39
73415;BME280;61633;53.742;-2.990;2022-09-09T02:35:47;100456.22;;;14.68;58.44
73415;BME280;61633;53.742;-2.990;2022-09-09T02:38:13;100456.08;;;14.09;60.10
73415;BME280;61633;53.742;-2.990;2022-09-09T02:40:36;100459.97;;;13.76;60.11
73415;BME280;61633;53.742;-2.990;2022-09-09T02:43:02;100458.98;;;14.43;59.60
73415;BME280;61633;53.742;-2.990;2022-09-09T02:45:31;100459.24;;;15.20;58.61
73415;BME280;61633;53.742;-2.990;2022-09-09T02:47:58;100457.58;;;15.18;57.40
73415;BME280;61633;53.742;-2.990;2022-09-09T02:50:22;100461.11;;;14.58;59.17
73415;BME280;61633;53.742;-2.990;2022-09-09T02:52:54;100464.00;;;14.54;59.21
73415;BME280;61633;53.742;-2.990;2022-09-09T02:55:14;100464.37;;;14.60;58.91
73415;BME280;61633;53.742;-2.990;2022-09-09T02:57:36;100463.21;;;13.73;60.87
73415;BME280;61633;53.742;-2.990;2022-09-09T03:00:02;100466.79;;;14.15;60.67
73415;BME280;61633;53.742;-2.990;2022-09-09T03:02:26;100466.58;;;14.12;60.73
73415;BME280;61633;53.742;-2.990;2022-09-09T03:04:51;100468.93;;;15.15;58.32
73415;BME280;61633;53.742;-2.990;2022-09-09T03:07:18;100468.32;;;13.52;61.74
73415;BME280;61633;53.742;-2.990;2022-09-09T03:09:44;100471.86;;;14.86;58.66
73415;BME280;61633;53.742;-2.990;2022-09-09T03:12:09;100470.07;;;13.62;60.94
73415;BME280;61633;53.742;-2.990;2022-09-09T03:14:34;100470.70;;;15.47;57.21
73415;BME280;61633;53.742;-2.990;2022-09-09T03:17:00;100472.91;;;14.51;59.55
73415;BME280;61633;53.742;-2.990;2022-09-09T03:19:25;100470.71;;;14.17;60.91
73415;BME280;61633;53.742;-2.990;2022-09-09T03:21:51;100472.85;;;15.11;57.88
73415;BME280;61633;53.742;-2.990;2022-09-09T03:24:16;100473.46;;;14.09;60.84
73415;BME280;61633;53.742;-2.990;2022-09-09T03:26:42;100474.91;;;14.31;59.87
73415;BME280;61633;53.742;-2.990;2022-09-09T03:29:07;100475.39;;;13.89;61.05
73415;BME280;61633;53.742;-2.990;2022-09-09T03:31:33;100478.26;;;13.86;61.22
73415;BME280;61633;53.742;-2.990;2022-09-09T03:33:59;100482.99;;;14.62;59.39
73415;BME280;61633;53.742;-2.990;2022-09-09T03:36:24;100482.42;;;14.73;60.07
73415;BME280;61633;53.742;-2.990;2022-09-09T03:38:50;100488.97;;;14.34;59.78
73415;BME280;61633;53.742;-2.990;2022-09-09T03:41:15;100489.21;;;14.08;59.54
73415;BME280;61633;53.742;-2.990;2022-09-09T03:43:40;100490.26;;;15.42;57.45
73415;BME280;61633;53.742;-2.990;2022-09-09T03:46:06;100487.26;;;13.59;60.67
73415;BME280;61633;53.742;-2.990;2022-09-09T03:48:31;100488.39;;;14.02;60.50
73415;BME280;61633;53.742;-2.990;2022-09-09T03:50:58;100484.76;;;14.05;61.10
73415;BME280;61633;53.742;-2.990;2022-09-09T03:53:23;100485.36;;;14.36;59.78
73415;BME280;61633;53.742;-2.990;2022-09-09T03:55:49;100486.14;;;12.85;60.97
73415;BME280;61633;53.742;-2.990;2022-09-09T03:58:14;100488.68;;;14.20;59.95
73415;BME280;61633;53.742;-2.990;2022-09-09T04:00:39;100491.59;;;13.36;62.41
73415;BME280;61633;53.742;-2.990;2022-09-09T04:03:05;100488.27;;;13.43;61.15
73415;BME280;61633;53.742;-2.990;2022-09-09T04:05:30;100488.63;;;13.65;60.86
73415;BME280;61633;53.742;-2.990;2022-09-09T04:07:55;100491.27;;;13.99;59.73
73415;BME280;61633;53.742;-2.990;2022-09-09T04:10:20;100492.18;;;13.70;60.02
73415;BME280;61633;53.742;-2.990;2022-09-09T04:12:46;100494.58;;;13.86;58.75
73415;BME280;61633;53.742;-2.990;2022-09-09T04:15:12;100498.72;;;15.40;57.08
73415;BME280;61633;53.742;-2.990;2022-09-09T04:17:37;100497.37;;;15.80;56.24
73415;BME280;61633;53.742;-2.990;2022-09-09T04:20:04;100495.43;;;14.75;56.69
73415;BME280;61633;53.742;-2.990;2022-09-09T04:22:28;100492.91;;;15.38;55.99
73415;BME280;61633;53.742;-2.990;2022-09-09T04:24:54;100491.84;;;15.10;56.69
73415;BME280;61633;53.742;-2.990;2022-09-09T04:27:19;100492.87;;;14.85;57.20
73415;BME280;61633;53.742;-2.990;2022-09-09T04:29:46;100490.46;;;15.23;56.22
73415;BME280;61633;53.742;-2.990;2022-09-09T04:32:10;100490.12;;;15.99;55.34
73415;BME280;61633;53.742;-2.990;2022-09-09T04:34:36;100492.44;;;14.40;56.98
73415;BME280;61633;53.742;-2.990;2022-09-09T04:37:01;100493.28;;;14.67;56.99
73415;BME280;61633;53.742;-2.990;2022-09-09T04:39:27;100493.01;;;16.01;54.27
73415;BME280;61633;53.742;-2.990;2022-09-09T04:41:52;100498.20;;;15.97;54.53
73415;BME280;61633;53.742;-2.990;2022-09-09T04:44:18;100499.94;;;16.15;54.65
73415;BME280;61633;53.742;-2.990;2022-09-09T04:46:45;100493.55;;;16.19;54.05
73415;BME280;61633;53.742;-2.990;2022-09-09T04:49:09;100501.13;;;14.80;55.54
73415;BME280;61633;53.742;-2.990;2022-09-09T04:51:35;100503.17;;;15.07;55.84
73415;BME280;61633;53.742;-2.990;2022-09-09T04:54:00;100503.27;;;15.23;56.12
73415;BME280;61633;53.742;-2.990;2022-09-09T04:56:27;100505.20;;;15.29;56.27
73415;BME280;61633;53.742;-2.990;2022-09-09T04:58:52;100510.28;;;15.38;55.72
73415;BME280;61633;53.742;-2.990;2022-09-09T05:01:19;100511.55;;;15.39;54.29
73415;BME280;61633;53.742;-2.990;2022-09-09T05:03:46;100515.90;;;15.54;54.96
73415;BME280;61633;53.742;-2.990;2022-09-09T05:06:10;100508.91;;;16.73;52.21
73415;BME280;61633;53.742;-2.990;2022-09-09T05:08:36;100514.91;;;15.97;53.85
73415;BME280;61633;53.742;-2.990;2022-09-09T05:11:00;100516.62;;;14.59;56.68
73415;BME280;61633;53.742;-2.990;2022-09-09T05:13:26;100517.92;;;15.47;55.87
73415;BME280;61633;53.742;-2.990;2022-09-09T05:15:52;100521.81;;;15.13;55.25
73415;BME280;61633;53.742;-2.990;2022-09-09T05:18:16;100509.73;;;16.23;52.77
73415;BME280;61633;53.742;-2.990;2022-09-09T05:20:41;100521.76;;;16.16;53.93
73415;BME280;61633;53.742;-2.990;2022-09-09T05:23:08;100523.60;;;16.11;53.72
73415;BME280;61633;53.742;-2.990;2022-09-09T05:25:33;100523.88;;;16.10;54.69
73415;BME280;61633;53.742;-2.990;2022-09-09T05:27:59;100523.52;;;15.73;54.44
73415;BME280;61633;53.742;-2.990;2022-09-09T05:30:24;100523.56;;;14.73;56.13
73415;BME280;61633;53.742;-2.990;2022-09-09T05:32:49;100525.14;;;14.29;56.27
73415;BME280;61633;53.742;-2.990;2022-09-09T05:35:15;100525.18;;;14.80;57.21
73415;BME280;61633;53.742;-2.990;2022-09-09T05:37:41;100527.13;;;15.30;56.44
73415;BME280;61633;53.742;-2.990;2022-09-09T05:40:07;100530.50;;;13.76;59.90
73415;BME280;61633;53.742;-2.990;2022-09-09T05:42:32;100530.84;;;13.07;60.77
73415;BME280;61633;53.742;-2.990;2022-09-09T05:44:58;100528.96;;;14.27;58.14
73415;BME280;61633;53.742;-2.990;2022-09-09T05:47:23;100527.99;;;14.89;57.74
73415;BME280;61633;53.742;-2.990;2022-09-09T05:49:54;100530.82;;;13.71;59.27
73415;BME280;61633;53.742;-2.990;2022-09-09T05:52:36;100534.05;;;14.09;59.66
73415;BME280;61633;53.742;-2.990;2022-09-09T05:54:48;100538.88;;;14.50;57.87
73415;BME280;61633;53.742;-2.990;2022-09-09T05:59:45;100547.16;;;14.71;58.48
73415;BME280;61633;53.742;-2.990;2022-09-09T06:02:03;100551.76;;;15.16;57.48
73415;BME280;61633;53.742;-2.990;2022-09-09T06:07:02;100556.27;;;13.71;59.37
73415;BME280;61633;53.742;-2.990;2022-09-09T06:09:29;100556.28;;;14.04;59.85
73415;BME280;61633;53.742;-2.990;2022-09-09T06:11:40;100559.89;;;14.78;59.20
73415;BME280;61633;53.742;-2.990;2022-09-09T06:14:07;100568.79;;;15.23;56.84
73415;BME280;61633;53.742;-2.990;2022-09-09T06:16:38;100570.89;;;15.91;56.19
73415;BME280;61633;53.742;-2.990;2022-09-09T06:18:57;100569.57;;;15.04;56.46
73415;BME280;61633;53.742;-2.990;2022-09-09T06:21:24;100571.68;;;15.12;57.72
73415;BME280;61633;53.742;-2.990;2022-09-09T06:23:55;100569.42;;;14.38;58.43
73415;BME280;61633;53.742;-2.990;2022-09-09T06:26:26;100571.10;;;14.56;58.53
73415;BME280;61633;53.742;-2.990;2022-09-09T06:28:43;100575.73;;;16.09;56.10
73415;BME280;61633;53.742;-2.990;2022-09-09T06:31:07;100576.68;;;15.64;56.27
73415;BME280;61633;53.742;-2.990;2022-09-09T06:35:55;100577.97;;;15.81;55.16
73415;BME280;61633;53.742;-2.990;2022-09-09T06:38:21;100588.82;;;15.87;55.91
73415;BME280;61633;53.742;-2.990;2022-09-09T06:40:52;100582.58;;;16.46;53.35
73415;BME280;61633;53.742;-2.990;2022-09-09T06:43:14;100593.93;;;15.08;55.79
73415;BME280;61633;53.742;-2.990;2022-09-09T06:48:05;100595.96;;;14.39;54.99
73415;BME280;61633;53.742;-2.990;2022-09-09T06:50:37;100596.51;;;16.07;54.10
73415;BME280;61633;53.742;-2.990;2022-09-09T06:53:02;100595.17;;;16.44;54.01
73415;BME280;61633;53.742;-2.990;2022-09-09T06:55:20;100599.56;;;16.28;55.56
73415;BME280;61633;53.742;-2.990;2022-09-09T06:57:49;100597.83;;;16.01;55.27
73415;BME280;61633;53.742;-2.990;2022-09-09T07:00:13;100599.75;;;16.04;53.91
73415;BME280;61633;53.742;-2.990;2022-09-09T07:02:46;100593.50;;;16.92;52.98
73415;BME280;61633;53.742;-2.990;2022-09-09T07:05:07;100600.85;;;15.92;55.04
73415;BME280;61633;53.742;-2.990;2022-09-09T07:07:28;100601.94;;;17.10;53.73
73415;BME280;61633;53.742;-2.990;2022-09-09T07:09:55;100607.88;;;15.94;55.49
73415;BME280;61633;53.742;-2.990;2022-09-09T07:12:24;100603.11;;;16.51;53.91
73415;BME280;61633;53.742;-2.990;2022-09-09T07:14:46;100601.70;;;16.28;54.28
73415;BME280;61633;53.742;-2.990;2022-09-09T07:17:11;100599.10;;;16.67;52.17
73415;BME280;61633;53.742;-2.990;2022-09-09T07:19:36;100609.46;;;16.21;54.81
73415;BME280;61633;53.742;-2.990;2022-09-09T07:22:01;100605.88;;;17.24;52.66
73415;BME280;61633;53.742;-2.990;2022-09-09T07:24:27;100606.70;;;17.30;52.75
73415;BME280;61633;53.742;-2.990;2022-09-09T07:26:52;100607.06;;;17.16;52.72
73415;BME280;61633;53.742;-2.990;2022-09-09T07:29:17;100609.38;;;17.76;51.85
73415;BME280;61633;53.742;-2.990;2022-09-09T07:31:43;100614.79;;;17.51;52.01
73415;BME280;61633;53.742;-2.990;2022-09-09T07:34:09;100617.89;;;18.04;51.24
73415;BME280;61633;53.742;-2.990;2022-09-09T07:36:35;100632.69;;;16.50;53.83
73415;BME280;61633;53.742;-2.990;2022-09-09T07:39:01;100630.66;;;16.88;53.78
73415;BME280;61633;53.742;-2.990;2022-09-09T07:41:26;100626.62;;;17.49;52.68
73415;BME280;61633;53.742;-2.990;2022-09-09T07:43:50;100625.68;;;17.11;51.60
73415;BME280;61633;53.742;-2.990;2022-09-09T07:46:18;100629.04;;;16.73;53.36
73415;BME280;61633;53.742;-2.990;2022-09-09T07:48:47;100633.83;;;16.43;54.79
73415;BME280;61633;53.742;-2.990;2022-09-09T07:51:08;100627.96;;;17.68;52.46
73415;BME280;61633;53.742;-2.990;2022-09-09T07:53:32;100630.30;;;17.86;52.74
73415;BME280;61633;53.742;-2.990;2022-09-09T07:56:03;100631.33;;;17.58;52.86
73415;BME280;61633;53.742;-2.990;2022-09-09T07:58:25;100637.27;;;16.43;54.55
73415;BME280;61633;53.742;-2.990;2022-09-09T08:00:48;100637.43;;;17.05;52.81
73415;BME280;61633;53.742;-2.990;2022-09-09T08:03:14;100638.25;;;17.91;52.45
73415;BME280;61633;53.742;-2.990;2022-09-09T08:05:39;100640.57;;;17.90;51.83
73415;BME280;61633;53.742;-2.990;2022-09-09T08:08:04;100641.63;;;17.40;52.77
73415;BME280;61633;53.742;-2.990;2022-09-09T08:10:30;100646.92;;;17.04;54.57
73415;BME280;61633;53.742;-2.990;2022-09-09T08:12:56;100645.82;;;17.19;53.15
73415;BME280;61633;53.742;-2.990;2022-09-09T08:15:21;100646.76;;;17.68;53.17
73415;BME280;61633;53.742;-2.990;2022-09-09T08:17:48;100647.74;;;16.91;54.39
73415;BME280;61633;53.742;-2.990;2022-09-09T08:20:13;100649.64;;;18.18;52.44
73415;BME280;61633;53.742;-2.990;2022-09-09T08:22:38;100652.05;;;17.85;53.30
73415;BME280;61633;53.742;-2.990;2022-09-09T08:25:05;100653.61;;;18.30;51.62
73415;BME280;61633;53.742;-2.990;2022-09-09T08:27:29;100654.19;;;17.83;52.53
73415;BME280;61633;53.742;-2.990;2022-09-09T08:29:55;100653.33;;;19.20;50.75
73415;BME280;61633;53.742;-2.990;2022-09-09T08:32:21;100659.52;;;18.45;50.71
73415;BME280;61633;53.742;-2.990;2022-09-09T08:34:50;100661.29;;;17.03;52.78
73415;BME280;61633;53.742;-2.990;2022-09-09T08:37:12;100662.17;;;19.49;50.17
73415;BME280;61633;53.742;-2.990;2022-09-09T08:39:37;100660.97;;;19.25;50.34
73415;BME280;61633;53.742;-2.990;2022-09-09T08:42:14;100667.70;;;18.95;50.67
73415;BME280;61633;53.742;-2.990;2022-09-09T08:44:39;100667.64;;;18.17;51.72
73415;BME280;61633;53.742;-2.990;2022-09-09T08:46:59;100665.75;;;19.13;50.02
73415;BME280;61633;53.742;-2.990;2022-09-09T08:51:46;100674.83;;;18.98;51.56
73415;BME280;61633;53.742;-2.990;2022-09-09T08:54:10;100672.99;;;19.36;50.35
73415;BME280;61633;53.742;-2.990;2022-09-09T08:56:37;100674.99;;;19.63;49.55
73415;BME280;61633;53.742;-2.990;2022-09-09T08:59:03;100674.00;;;20.02;48.90
73415;BME280;61633;53.742;-2.990;2022-09-09T09:01:40;100679.68;;;19.54;48.61
73415;BME280;61633;53.742;-2.990;2022-09-09T09:04:02;100685.40;;;19.78;48.16
73415;BME280;61633;53.742;-2.990;2022-09-09T09:06:29;100688.89;;;18.96;49.91
73415;BME280;61633;53.742;-2.990;2022-09-09T09:08:48;100693.26;;;19.77;48.63
73415;BME280;61633;53.742;-2.990;2022-09-09T09:11:09;100692.91;;;19.21;49.85
73415;BME280;61633;53.742;-2.990;2022-09-09T09:13:38;100696.04;;;19.36;49.71
73415;BME280;61633;53.742;-2.990;2022-09-09T09:16:04;100699.12;;;18.30;51.11
73415;BME280;61633;53.742;-2.990;2022-09-09T09:18:24;100695.96;;;20.08;47.94
73415;BME280;61633;53.742;-2.990;2022-09-09T09:20:57;100705.48;;;18.04;50.63
73415;BME280;61633;53.742;-2.990;2022-09-09T09:23:21;100704.99;;;19.75;48.64
73415;BME280;61633;53.742;-2.990;2022-09-09T09:25:44;100705.68;;;20.15;47.91
73415;BME280;61633;53.742;-2.990;2022-09-09T09:28:15;100709.87;;;18.81;48.70
73415;BME280;61633;53.742;-2.990;2022-09-09T09:30:35;100709.65;;;20.64;46.55
73415;BME280;61633;53.742;-2.990;2022-09-09T09:33:01;100716.77;;;20.12;46.75
73415;BME280;61633;53.742;-2.990;2022-09-09T09:35:22;100718.36;;;19.69;46.49
73415;BME280;61633;53.742;-2.990;2022-09-09T09:37:48;100716.04;;;20.31;46.26
73415;BME280;61633;53.742;-2.990;2022-09-09T09:40:17;100722.46;;;20.19;46.56
73415;BME280;61633;53.742;-2.990;2022-09-09T09:42:51;100720.89;;;19.16;47.48
73415;BME280;61633;53.742;-2.990;2022-09-09T09:45:17;100724.23;;;18.77;47.61
73415;BME280;61633;53.742;-2.990;2022-09-09T09:47:29;100730.63;;;18.42;49.70
73415;BME280;61633;53.742;-2.990;2022-09-09T09:49:57;100733.36;;;18.79;49.15
73415;BME280;61633;53.742;-2.990;2022-09-09T09:52:22;100733.16;;;19.36;48.55
73415;BME280;61633;53.742;-2.990;2022-09-09T09:54:47;100739.35;;;18.74;50.97
73415;BME280;61633;53.742;-2.990;2022-09-09T09:57:13;100740.11;;;20.01;47.14
73415;BME280;61633;53.742;-2.990;2022-09-09T09:59:38;100741.80;;;19.14;49.44
73415;BME280;61633;53.742;-2.990;2022-09-09T10:02:15;100741.64;;;19.30;47.79
73415;BME280;61633;53.742;-2.990;2022-09-09T10:04:30;100743.51;;;19.61;46.98
73415;BME280;61633;53.742;-2.990;2022-09-09T10:06:53;100742.41;;;20.51;45.86
73415;BME280;61633;53.742;-2.990;2022-09-09T10:09:25;100745.99;;;19.54;47.78
73415;BME280;61633;53.742;-2.990;2022-09-09T10:11:49;100747.34;;;19.18;48.77
73415;BME280;61633;53.742;-2.990;2022-09-09T10:14:19;100747.85;;;19.36;49.72
73415;BME280;61633;53.742;-2.990;2022-09-09T10:16:45;100744.95;;;19.33;48.77
73415;BME280;61633;53.742;-2.990;2022-09-09T10:19:04;100750.57;;;19.04;48.49
73415;BME280;61633;53.742;-2.990;2022-09-09T10:21:42;100746.98;;;19.88;47.21
73415;BME280;61633;53.742;-2.990;2022-09-09T10:24:16;100747.95;;;19.74;46.68
73415;BME280;61633;53.742;-2.990;2022-09-09T10:26:28;100754.57;;;19.77;47.30
73415;BME280;61633;53.742;-2.990;2022-09-09T10:28:55;100757.72;;;19.08;48.05
73415;BME280;61633;53.742;-2.990;2022-09-09T10:31:17;100758.63;;;19.88;47.43
73415;BME280;61633;53.742;-2.990;2022-09-09T10:33:38;100759.98;;;20.32;46.60
73415;BME280;61633;53.742;-2.990;2022-09-09T10:36:06;100761.25;;;18.72;48.21
73415;BME280;61633;53.742;-2.990;2022-09-09T10:38:29;100762.08;;;19.56;47.31
73415;BME280;61633;53.742;-2.990;2022-09-09T10:41:00;100766.66;;;18.01;48.32
73415;BME280;61633;53.742;-2.990;2022-09-09T10:43:25;100765.01;;;18.79;49.52
73415;BME280;61633;53.742;-2.990;2022-09-09T10:45:52;100769.16;;;19.50;47.65
73415;BME280;61633;53.742;-2.990;2022-09-09T10:48:16;100766.36;;;19.78;46.48
73415;BME280;61633;53.742;-2.990;2022-09-09T10:50:42;100769.07;;;20.24;45.95
73415;BME280;61633;53.742;-2.990;2022-09-09T10:53:02;100766.41;;;19.99;47.30
73415;BME280;61633;53.742;-2.990;2022-09-09T10:55:25;100768.01;;;20.45;45.23
73415;BME280;61633;53.742;-2.990;2022-09-09T10:57:50;100767.82;;;20.76;45.13
73415;BME280;61633;53.742;-2.990;2022-09-09T11:00:18;100769.45;;;20.87;45.04
73415;BME280;61633;53.742;-2.990;2022-09-09T11:02:38;100776.43;;;20.57;45.20
73415;BME280;61633;53.742;-2.990;2022-09-09T11:05:10;100779.91;;;21.06;43.85
73415;BME280;61633;53.742;-2.990;2022-09-09T11:07:34;100783.48;;;20.52;44.19
73415;BME280;61633;53.742;-2.990;2022-09-09T11:09:59;100790.24;;;20.38;44.99
73415;BME280;61633;53.742;-2.990;2022-09-09T11:12:22;100790.54;;;20.21;46.20
73415;BME280;61633;53.742;-2.990;2022-09-09T11:14:49;100791.59;;;20.95;44.41
73415;BME280;61633;53.742;-2.990;2022-09-09T11:17:14;100793.49;;;19.33;45.09
73415;BME280;61633;53.742;-2.990;2022-09-09T11:19:39;100790.23;;;21.13;43.46
73415;BME280;61633;53.742;-2.990;2022-09-09T11:22:05;100790.83;;;21.18;43.64
73415;BME280;61633;53.742;-2.990;2022-09-09T11:24:30;100788.52;;;20.72;44.06
73415;BME280;61633;53.742;-2.990;2022-09-09T11:26:57;100795.30;;;19.48;45.82
73415;BME280;61633;53.742;-2.990;2022-09-09T11:29:40;100797.92;;;20.76;44.92
73415;BME280;61633;53.742;-2.990;2022-09-09T11:31:50;100800.24;;;19.64;47.38
73415;BME280;61633;53.742;-2.990;2022-09-09T11:34:20;100798.59;;;20.80;45.72
73415;BME280;61633;53.742;-2.990;2022-09-09T11:36:46;100794.07;;;20.75;46.13
73415;BME280;61633;53.742;-2.990;2022-09-09T11:39:06;100795.92;;;20.73;43.72
73415;BME280;61633;53.742;-2.990;2022-09-09T11:41:34;100792.87;;;20.64;44.95
73415;BME280;61633;53.742;-2.990;2022-09-09T11:43:51;100797.26;;;20.60;43.38
73415;BME280;61633;53.742;-2.990;2022-09-09T11:46:21;100792.24;;;21.16;45.01
73415;BME280;61633;53.742;-2.990;2022-09-09T11:48:43;100798.70;;;22.30;43.71
73415;BME280;61633;53.742;-2.990;2022-09-09T11:51:08;100799.77;;;21.24;43.48
73415;BME280;61633;53.742;-2.990;2022-09-09T11:53:33;100802.77;;;22.09;42.12
73415;BME280;61633;53.742;-2.990;2022-09-09T11:56:07;100800.92;;;22.26;42.24
73415;BME280;61633;53.742;-2.990;2022-09-09T11:58:23;100809.61;;;21.86;42.36
73415;BME280;61633;53.742;-2.990;2022-09-09T12:00:49;100809.02;;;20.93;42.51
73415;BME280;61633;53.742;-2.990;2022-09-09T12:05:42;100808.32;;;22.13;42.49
73415;BME280;61633;53.742;-2.990;2022-09-09T12:08:05;100805.78;;;20.19;43.31
73415;BME280;61633;53.742;-2.990;2022-09-09T12:10:32;100803.30;;;21.01;43.89
73415;BME280;61633;53.742;-2.990;2022-09-09T12:12:55;100805.51;;;20.85;44.11
73415;BME280;61633;53.742;-2.990;2022-09-09T12:15:25;100807.30;;;20.87;44.44
73415;BME280;61633;53.742;-2.990;2022-09-09T12:17:50;100812.06;;;20.83;45.16
73415;BME280;61633;53.742;-2.990;2022-09-09T12:20:20;100816.82;;;22.24;41.97
73415;BME280;61633;53.742;-2.990;2022-09-09T12:22:49;100814.41;;;21.85;43.36
73415;BME280;61633;53.742;-2.990;2022-09-09T12:25:13;100814.04;;;22.08;42.10
73415;BME280;61633;53.742;-2.990;2022-09-09T12:27:33;100819.40;;;22.17;41.71
73415;BME280;61633;53.742;-2.990;2022-09-09T12:29:58;100819.92;;;21.54;42.16
73415;BME280;61633;53.742;-2.990;2022-09-09T12:32:23;100822.19;;;22.16;43.33
73415;BME280;61633;53.742;-2.990;2022-09-09T12:34:49;100822.17;;;21.16;44.28
73415;BME280;61633;53.742;-2.990;2022-09-09T12:37:21;100825.47;;;21.03;42.39
73415;BME280;61633;53.742;-2.990;2022-09-09T12:39:38;100828.09;;;22.02;41.54
73415;BME280;61633;53.742;-2.990;2022-09-09T12:42:00;100828.08;;;23.18;41.23
73415;BME280;61633;53.742;-2.990;2022-09-09T12:44:26;100827.50;;;21.08;42.72